Time;durP1;ratioP1;P1;durP2;ratioP2;P2;SDS_P1;SDS_P2;PMS_P1;PMS_P2;Temp;Humidity;BMP_temperature;BMP_pressure;BME280_temperature;BME280_humidity;BME280_pressure;Samples;Min_cycle;Max_cycle;Signal;HPM_P1;HPM_P2
2023/01/08 00:02:01;;;;;;;9.43;4.00;;;;;;;8.82;100.00;100341.28;4954821;29;20027;-85
2023/01/08 00:04:26;;;;;;;8.38;4.10;;;;;;;8.82;100.00;100331.81;4954755;29;20106;-86
2023/01/08 00:06:51;;;;;;;8.30;3.80;;;;;;;8.71;100.00;100307.69;4954660;29;20070;-85
2023/01/08 00:09:17;;;;;;;7.45;3.22;;;;;;;8.81;100.00;100331.91;4954693;29;20062;-86
2023/01/08 00:11:43;;;;;;;7.05;3.60;;;;;;;8.87;100.00;100329.78;4954435;29;20024;-76
2023/01/08 00:14:09;;;;;;;7.45;3.95;;;;;;;8.82;100.00;100333.56;4936922;29;20557;-75
2023/01/08 00:16:34;;;;;;;7.25;4.05;;;;;;;8.84;100.00;100340.25;4954648;29;20035;-85
2023/01/08 00:18:59;;;;;;;9.05;3.58;;;;;;;8.86;100.00;100343.59;4954602;29;20038;-85
2023/01/08 00:21:25;;;;;;;8.27;4.20;;;;;;;8.85;100.00;100347.09;4937033;29;20077;-76
2023/01/08 00:23:50;;;;;;;6.88;3.63;;;;;;;8.83;100.00;100336.03;4954489;29;20110;-84
2023/01/08 00:26:16;;;;;;;5.82;3.22;;;;;;;8.78;100.00;100332.94;4954439;29;20031;-83
2023/01/08 00:28:41;;;;;;;8.60;3.95;;;;;;;8.71;100.00;100315.41;4954396;29;20028;-82
2023/01/08 00:31:09;;;;;;;6.57;3.33;;;;;;;8.55;100.00;100300.94;4954167;28;20031;-77
2023/01/08 00:33:35;;;;;;;6.88;3.10;;;;;;;8.72;100.00;100327.34;4954139;29;20043;-86
2023/01/08 00:36:10;;;;;;;7.78;3.67;;;;;;;8.71;100.00;100315.41;4954470;29;20019;-85
2023/01/08 00:38:35;;;;;;;9.63;3.90;;;;;;;8.61;100.00;100303.09;4954319;29;20027;-85
2023/01/08 00:41:01;;;;;;;8.13;4.32;;;;;;;8.60;100.00;100308.34;4954314;29;20464;-84
2023/01/08 00:43:26;;;;;;;7.72;3.80;;;;;;;8.39;100.00;100277.06;4954486;29;20475;-86
2023/01/08 00:45:52;;;;;;;7.25;3.65;;;;;;;8.37;100.00;100270.38;4954228;29;20481;-80
2023/01/08 00:48:18;;;;;;;7.50;3.40;;;;;;;8.51;100.00;100296.88;4936727;29;20471;-79
2023/01/08 00:50:44;;;;;;;7.35;3.55;;;;;;;8.51;100.00;100298.63;4954320;29;20071;-82
2023/01/08 00:53:09;;;;;;;8.25;3.50;;;;;;;8.51;100.00;100293.50;4953982;29;20051;-82
2023/01/08 00:55:34;;;;;;;6.55;3.75;;;;;;;8.54;100.00;100291.53;4954222;29;20039;-79
2023/01/08 00:57:59;;;;;;;8.73;3.85;;;;;;;8.54;100.00;100304.41;4954372;29;20041;-83
2023/01/08 01:00:25;;;;;;;8.63;3.72;;;;;;;8.55;100.00;100285.50;4954278;29;20059;-78
2023/01/08 01:02:50;;;;;;;7.82;3.60;;;;;;;8.58;100.00;100293.00;4954529;29;20074;-84
2023/01/08 01:05:16;;;;;;;8.73;3.55;;;;;;;8.62;100.00;100296.22;4954622;29;20022;-76
2023/01/08 01:07:44;;;;;;;11.50;3.50;;;;;;;8.54;100.00;100275.28;4936948;29;20071;-75
2023/01/08 01:10:12;;;;;;;6.47;3.47;;;;;;;8.61;100.00;100273.97;4954240;29;20038;-75
2023/01/08 01:12:38;;;;;;;6.65;3.42;;;;;;;8.56;100.00;100270.88;4954312;29;20023;-74
2023/01/08 01:15:09;;;;;;;8.20;4.30;;;;;;;8.56;100.00;100281.16;4954206;29;20042;-77
2023/01/08 01:17:37;;;;;;;7.60;3.80;;;;;;;8.55;100.00;100279.50;4952696;29;20040;-75
2023/01/08 01:20:03;;;;;;;9.05;4.47;;;;;;;8.56;100.00;100261.41;4954379;29;20155;-75
2023/01/08 01:22:29;;;;;;;9.07;4.05;;;;;;;8.60;100.00;100273.16;4954197;29;20031;-78
2023/01/08 01:24:54;;;;;;;8.50;3.45;;;;;;;8.42;100.00;100240.84;4953861;29;20077;-77
2023/01/08 01:27:19;;;;;;;8.77;4.28;;;;;;;8.60;100.00;100272.31;4952717;29;20031;-74
2023/01/08 01:29:45;;;;;;;9.63;4.18;;;;;;;8.56;100.00;100270.88;4936837;29;20039;-85
2023/01/08 01:32:10;;;;;;;11.45;4.07;;;;;;;8.61;100.00;100266.25;4954047;28;20044;-81
2023/01/08 01:34:35;;;;;;;6.95;4.05;;;;;;;8.61;100.00;100258.53;4954164;29;20031;-75
2023/01/08 01:37:01;;;;;;;9.23;3.85;;;;;;;8.62;100.00;100260.19;4954026;29;20027;-84
2023/01/08 01:39:26;;;;;;;8.45;4.45;;;;;;;8.63;100.00;100257.50;4954011;29;20463;-81
2023/01/08 01:41:52;;;;;;;8.88;3.85;;;;;;;8.60;100.00;100247.41;4954143;29;20031;-79
2023/01/08 01:44:38;;;;;;;9.02;4.18;;;;;;;8.65;100.00;100264.28;4954346;28;20094;-76
2023/01/08 01:47:38;;;;;;;9.60;4.35;;;;;;;8.63;100.00;100267.78;4957573;29;20113;-82
2023/01/08 01:50:11;;;;;;;8.63;4.50;;;;;;;8.67;100.00;100270.19;4953453;29;20097;-75
2023/01/08 01:52:41;;;;;;;9.90;4.50;;;;;;;8.65;100.00;100270.25;4957591;29;20031;-80
2023/01/08 01:55:09;;;;;;;9.88;4.10;;;;;;;8.67;100.00;100281.31;4957289;29;20146;-82
2023/01/08 01:57:35;;;;;;;6.78;4.30;;;;;;;8.69;100.00;100279.47;4957401;29;20102;-82
2023/01/08 02:00:03;;;;;;;8.15;4.00;;;;;;;8.69;100.00;100273.50;4957350;29;20054;-78
2023/01/08 02:02:31;;;;;;;7.60;3.67;;;;;;;8.68;100.00;100266.69;4957213;29;20082;-85
2023/01/08 02:04:57;;;;;;;7.00;3.40;;;;;;;8.61;100.00;100258.53;4957206;29;20066;-78
2023/01/08 02:07:37;;;;;;;8.82;3.58;;;;;;;8.54;100.00;100262.41;4957215;29;20019;-75
2023/01/08 02:10:10;;;;;;;6.47;3.33;;;;;;;8.57;100.00;100265.63;4956997;29;20423;-75
2023/01/08 02:13:00;;;;;;;6.55;3.30;;;;;;;8.47;100.00;100258.59;4957045;29;20038;-78
2023/01/08 02:15:33;;;;;;;6.97;2.60;;;;;;;8.50;100.00;100266.09;4957021;29;20364;-80
2023/01/08 02:18:07;;;;;;;6.78;2.53;;;;;;;8.41;100.00;100257.22;4956940;29;20487;-79
2023/01/08 02:20:39;;;;;;;8.40;1.90;;;;;;;8.23;100.00;100230.88;4956683;29;20037;-76
2023/01/08 02:23:24;;;;;;;6.50;1.70;;;;;;;8.29;99.40;100247.66;4956855;29;20040;-77
2023/01/08 02:26:11;;;;;;;9.50;1.77;;;;;;;8.21;99.78;100249.91;4956689;29;20038;-80
2023/01/08 02:28:43;;;;;;;10.00;1.70;;;;;;;8.03;99.77;100231.28;4956640;29;20035;-79
2023/01/08 02:31:09;;;;;;;6.45;1.33;;;;;;;8.06;99.87;100241.38;4956479;28;20028;-77
2023/01/08 02:33:35;;;;;;;5.57;1.60;;;;;;;7.81;99.48;100221.50;4956857;29;20066;-77
2023/01/08 02:36:14;;;;;;;7.20;1.50;;;;;;;7.88;99.49;100233.06;4956610;29;20027;-80
2023/01/08 02:38:49;;;;;;;4.43;1.98;;;;;;;7.78;99.31;100231.97;4956578;29;20043;-81
2023/01/08 02:41:17;;;;;;;3.05;0.93;;;;;;;7.89;100.00;100241.59;4956169;29;20042;-77
2023/01/08 02:43:51;;;;;;;5.85;1.05;;;;;;;7.87;100.00;100256.31;4956391;29;20023;-81
2023/01/08 02:46:22;;;;;;;6.82;1.80;;;;;;;7.84;100.00;100256.47;4956350;29;20027;-76
2023/01/08 02:48:53;;;;;;;5.47;1.08;;;;;;;7.82;100.00;100258.31;4956300;29;20160;-76
2023/01/08 02:51:26;;;;;;;6.20;1.25;;;;;;;7.73;100.00;100245.09;4956462;29;20023;-80
2023/01/08 02:53:58;;;;;;;4.05;1.10;;;;;;;7.60;100.00;100223.63;4956128;29;20046;-80
2023/01/08 02:56:25;;;;;;;;;;;;;;;7.76;100.00;100255.19;4956488;28;20023;-76
2023/01/08 02:58:52;;;;;;;6.25;1.20;;;;;;;7.63;100.00;100240.59;4956274;29;19914;-78
2023/01/08 03:01:21;;;;;;;5.95;1.00;;;;;;;7.70;100.00;100259.88;4956021;29;20102;-77
2023/01/08 03:03:51;;;;;;;4.95;0.95;;;;;;;7.61;100.00;100247.59;4956151;29;20102;-83
2023/01/08 03:06:18;;;;;;;8.13;1.40;;;;;;;7.63;100.00;100263.72;4955909;29;20490;-84
2023/01/08 03:08:47;;;;;;;4.35;1.10;;;;;;;7.56;100.00;100255.53;4955863;29;20498;-77
2023/01/08 03:11:16;;;;;;;10.60;1.73;;;;;;;7.48;100.00;100250.06;4955875;29;20023;-82
2023/01/08 03:14:06;;;;;;;9.27;1.45;;;;;;;7.43;100.00;100246.94;4955770;29;20034;-82
2023/01/08 03:16:37;;;;;;;7.10;1.33;;;;;;;7.30;100.00;100230.59;4955743;29;20063;-81
2023/01/08 03:19:21;;;;;;;6.65;1.10;;;;;;;7.36;100.00;100243.06;4955773;29;20027;-73
2023/01/08 03:21:49;;;;;;;6.05;0.90;;;;;;;7.37;100.00;100240.41;4956053;29;20027;-75
2023/01/08 03:24:20;;;;;;;9.32;1.45;;;;;;;7.33;100.00;100246.63;4955792;29;20035;-77
2023/01/08 03:26:49;;;;;;;5.80;1.10;;;;;;;7.31;100.00;100242.50;4955364;29;20019;-80
2023/01/08 03:29:19;;;;;;;4.55;1.10;;;;;;;7.33;100.00;100245.81;4955546;29;20051;-76
2023/01/08 03:31:47;;;;;;;3.90;1.00;;;;;;;7.22;100.00;100233.59;4955192;29;20051;-80
2023/01/08 03:34:14;;;;;;;10.05;1.38;;;;;;;7.10;100.00;100218.91;4955449;29;20058;-78
2023/01/08 03:36:42;;;;;;;7.13;1.95;;;;;;;7.27;100.00;100241.03;4955555;29;20031;-76
2023/01/08 03:39:27;;;;;;;7.00;1.70;;;;;;;7.18;100.00;100221.88;4955274;29;20089;-81
2023/01/08 03:41:57;;;;;;;3.78;0.95;;;;;;;7.18;100.00;100230.41;4955285;29;20045;-75
2023/01/08 03:44:22;;;;;;;4.18;1.10;;;;;;;7.22;100.00;100238.75;4955263;29;20023;-81
2023/01/08 03:46:53;;;;;;;6.55;1.65;;;;;;;7.23;100.00;100240.38;4955298;29;20058;-78
2023/01/08 03:49:20;;;;;;;5.43;1.02;;;;;;;7.03;100.00;100210.75;4955196;29;20471;-75
2023/01/08 03:51:46;;;;;;;6.20;1.75;;;;;;;7.22;100.00;100227.66;4955118;29;20054;-79
2023/01/08 03:54:17;;;;;;;5.75;1.10;;;;;;;7.10;100.00;100203.53;4955105;29;20074;-79
2023/01/08 03:56:43;;;;;;;7.43;1.40;;;;;;;7.25;100.00;100222.31;4955001;29;20031;-81
2023/01/08 03:59:10;;;;;;;6.93;1.42;;;;;;;7.16;100.00;100192.88;4937620;29;20032;-78
2023/01/08 04:01:35;;;;;;;4.43;0.90;;;;;;;7.27;100.00;100216.16;4955200;29;20101;-80
2023/01/08 04:04:00;;;;;;;7.22;1.23;;;;;;;7.28;100.00;100217.84;4955132;29;20110;-77
2023/01/08 04:06:26;;;;;;;5.90;1.10;;;;;;;7.29;100.00;100211.78;4955049;29;20521;-80
2023/01/08 04:08:51;;;;;;;8.20;1.65;;;;;;;7.31;100.00;100211.69;4954599;28;20114;-80
2023/01/08 04:11:17;;;;;;;6.95;1.63;;;;;;;7.32;100.00;100214.16;4954744;29;20030;-82
2023/01/08 04:13:43;;;;;;;4.38;1.13;;;;;;;7.34;100.00;100211.50;4954357;29;20031;-74
2023/01/08 04:16:08;;;;;;;5.78;1.63;;;;;;;7.36;100.00;100200.22;4955019;29;20124;-73
2023/01/08 04:18:33;;;;;;;7.03;1.60;;;;;;;7.34;100.00;100185.81;4954825;29;20050;-75
2023/01/08 04:20:59;;;;;;;8.18;1.40;;;;;;;7.21;100.00;100169.50;4954849;29;20028;-75
2023/01/08 04:23:25;;;;;;;8.68;1.90;;;;;;;7.28;100.00;100193.91;4954921;29;20024;-74
2023/01/08 04:25:51;;;;;;;4.13;1.10;;;;;;;7.22;100.00;100194.25;4954711;29;20031;-76
2023/01/08 04:28:16;;;;;;;7.32;1.30;;;;;;;7.12;100.00;100183.72;4954456;29;20031;-75
2023/01/08 04:30:41;;;;;;;6.10;1.23;;;;;;;7.17;100.00;100200.47;4954477;29;20031;-74
2023/01/08 04:33:07;;;;;;;5.82;1.30;;;;;;;7.01;100.00;100175.81;4954321;29;20142;-74
2023/01/08 04:35:32;;;;;;;5.85;1.25;;;;;;;7.16;100.00;100188.56;4954670;29;20066;-75
2023/01/08 04:37:57;;;;;;;5.97;1.60;;;;;;;7.18;100.00;100183.34;4954576;29;20057;-74
2023/01/08 04:40:23;;;;;;;5.88;1.58;;;;;;;7.18;100.00;100186.75;4954685;29;20035;-73
2023/01/08 04:42:48;;;;;;;8.05;1.70;;;;;;;7.19;100.00;100183.25;4954494;29;20035;-75
2023/01/08 04:45:13;;;;;;;6.45;1.80;;;;;;;7.19;100.00;100180.69;4954350;29;20031;-76
2023/01/08 04:47:39;;;;;;;5.65;1.30;;;;;;;7.17;100.00;100179.94;4954470;29;20031;-76
2023/01/08 04:50:04;;;;;;;4.13;1.70;;;;;;;7.04;100.00;100160.22;4954572;29;20058;-75
2023/01/08 04:52:30;;;;;;;5.95;2.40;;;;;;;7.23;100.00;100177.94;4954591;29;20024;-74
2023/01/08 04:54:55;;;;;;;3.20;1.50;;;;;;;7.26;100.00;100180.31;4954416;29;20074;-74
2023/01/08 04:57:20;;;;;;;5.45;1.83;;;;;;;7.27;100.00;100185.34;4937089;29;20040;-73
2023/01/08 04:59:46;;;;;;;5.60;1.77;;;;;;;7.27;100.00;100187.91;4954256;29;20087;-74
2023/01/08 05:02:11;;;;;;;8.25;1.60;;;;;;;6.93;100.00;100129.22;4954400;29;20065;-76
2023/01/08 05:04:36;;;;;;;5.90;1.58;;;;;;;7.26;100.00;100188.84;4954584;29;20480;-74
2023/01/08 05:07:03;;;;;;;3.67;1.77;;;;;;;7.19;100.00;100180.69;4954397;29;20404;-75
2023/01/08 05:09:29;;;;;;;5.00;1.67;;;;;;;7.24;100.00;100184.72;4954210;29;20364;-76
2023/01/08 05:11:54;;;;;;;7.10;3.25;;;;;;;7.24;100.00;100184.72;4953139;29;20030;-74
2023/01/08 05:14:19;;;;;;;3.65;1.35;;;;;;;7.21;100.00;100183.16;4954144;29;20035;-75
2023/01/08 05:16:45;;;;;;;5.82;1.60;;;;;;;6.99;100.00;100144.28;4936420;29;20492;-77
2023/01/08 05:19:10;;;;;;;4.85;1.75;;;;;;;7.21;100.00;100183.16;4954445;28;20114;-75
2023/01/08 05:21:35;;;;;;;6.40;1.50;;;;;;;7.15;100.00;100178.38;4957009;29;20031;-77
2023/01/08 05:24:01;;;;;;;4.68;1.33;;;;;;;7.06;100.00;100155.81;4957928;29;20038;-76
2023/01/08 05:26:26;;;;;;;6.57;1.98;;;;;;;7.17;100.00;100173.97;4957940;29;20028;-74
2023/01/08 05:28:52;;;;;;;5.78;1.50;;;;;;;7.19;100.00;100175.56;4957814;29;20101;-75
2023/01/08 05:31:17;;;;;;;3.80;1.67;;;;;;;7.20;100.00;100173.81;4957486;29;20031;-77
2023/01/08 05:33:43;;;;;;;4.22;1.75;;;;;;;7.18;100.00;100167.94;4957617;29;20035;-79
2023/01/08 05:36:10;;;;;;;4.75;1.30;;;;;;;7.16;100.00;100162.88;4957720;29;20110;-74
2023/01/08 05:38:36;;;;;;;9.77;1.92;;;;;;;7.06;100.00;100141.25;4957693;29;20023;-75
2023/01/08 05:41:01;;;;;;;4.40;1.50;;;;;;;7.17;100.00;100156.00;4957731;29;20023;-75
2023/01/08 05:43:28;;;;;;;6.85;1.35;;;;;;;7.22;100.00;100155.75;4957494;29;20551;-74
2023/01/08 05:45:56;;;;;;;7.35;1.50;;;;;;;7.19;100.00;100152.44;4957608;29;20031;-74
2023/01/08 05:48:21;;;;;;;3.53;1.25;;;;;;;7.04;100.00;100139.69;4957537;29;20031;-78
2023/01/08 05:50:49;;;;;;;3.08;1.38;;;;;;;7.15;100.00;100161.22;4957531;29;20107;-75
2023/01/08 05:53:14;;;;;;;3.67;1.20;;;;;;;7.09;100.00;100155.66;4957420;29;20035;-74
2023/01/08 05:55:39;;;;;;;6.53;1.42;;;;;;;6.98;100.00;100158.84;4957359;29;20153;-74
2023/01/08 05:58:05;;;;;;;8.90;1.35;;;;;;;6.88;100.00;100162.84;4957232;29;20102;-75
2023/01/08 06:00:31;;;;;;;7.35;1.42;;;;;;;6.79;100.00;100159.09;4957223;29;20042;-75
2023/01/08 06:02:56;;;;;;;7.22;1.50;;;;;;;6.64;100.00;100154.00;4957312;29;20083;-74
2023/01/08 06:05:21;;;;;;;5.75;1.23;;;;;;;6.63;100.00;100172.88;4957341;29;20159;-75
2023/01/08 06:07:47;;;;;;;6.95;1.23;;;;;;;6.45;100.00;100152.50;4957051;29;20086;-75
2023/01/08 06:10:12;;;;;;;6.85;1.27;;;;;;;6.39;100.00;100167.38;4957049;29;20031;-75
2023/01/08 06:12:37;;;;;;;6.63;1.65;;;;;;;6.36;100.00;100176.09;4957013;29;20024;-76
2023/01/08 06:15:04;;;;;;;5.60;1.50;;;;;;;6.19;100.00;100163.38;4955141;29;20058;-75
2023/01/08 06:17:30;;;;;;;8.85;1.50;;;;;;;6.28;100.00;100189.31;4956947;29;20031;-77
2023/01/08 06:19:55;;;;;;;6.38;1.10;;;;;;;6.15;100.00;100172.16;4956860;29;20479;-81
2023/01/08 06:22:21;;;;;;;6.28;1.38;;;;;;;6.18;100.00;100182.22;4956884;29;20031;-78
2023/01/08 06:24:46;;;;;;;9.50;1.80;;;;;;;6.01;100.00;100171.19;4956836;29;20031;-80
2023/01/08 06:27:11;;;;;;;5.15;1.00;;;;;;;6.01;100.00;100185.75;4956900;29;20423;-77
2023/01/08 06:29:37;;;;;;;5.70;1.50;;;;;;;6.06;100.00;100204.25;4956632;29;20242;-76
2023/01/08 06:32:02;;;;;;;4.85;1.20;;;;;;;5.97;100.00;100210.69;4955997;28;20443;-75
2023/01/08 06:34:27;;;;;;;8.57;1.58;;;;;;;5.92;100.00;100217.81;4956467;29;20110;-75
2023/01/08 06:36:53;;;;;;;5.70;1.10;;;;;;;5.86;100.00;100212.97;4956694;29;20505;-74
2023/01/08 06:39:18;;;;;;;5.95;1.30;;;;;;;5.80;100.00;100215.88;4956458;29;20031;-75
2023/01/08 06:41:43;;;;;;;7.28;1.90;;;;;;;5.80;100.00;100215.03;4956632;29;20036;-76
2023/01/08 06:44:09;;;;;;;7.72;1.55;;;;;;;5.78;100.00;100212.53;4956289;29;20027;-75
2023/01/08 06:46:39;;;;;;;7.30;1.48;;;;;;;5.76;100.00;100217.75;4956295;29;20058;-75
2023/01/08 06:49:08;;;;;;;7.93;1.33;;;;;;;5.74;100.00;100221.31;4956306;29;20062;-75
2023/01/08 06:51:33;;;;;;;6.13;1.33;;;;;;;5.70;100.00;100215.53;4956259;29;20038;-74
2023/01/08 06:53:59;;;;;;;5.85;1.48;;;;;;;5.66;100.00;100213.19;4956103;29;20027;-75
2023/01/08 06:56:24;;;;;;;5.28;1.30;;;;;;;5.45;100.00;100187.81;4956234;29;20027;-73
2023/01/08 06:58:49;;;;;;;10.55;1.70;;;;;;;5.57;100.00;100211.94;4956073;29;20023;-75
2023/01/08 07:01:15;;;;;;;7.15;1.23;;;;;;;5.58;100.00;100217.88;4955938;29;20039;-74
2023/01/08 07:03:41;;;;;;;8.18;1.45;;;;;;;5.30;100.00;100183.47;4956013;29;20031;-75
2023/01/08 07:06:13;;;;;;;6.22;1.60;;;;;;;5.51;100.00;100214.00;4955976;29;20443;-73
2023/01/08 07:08:39;;;;;;;9.23;1.85;;;;;;;5.27;100.00;100178.50;4956054;29;20063;-75
2023/01/08 07:11:04;;;;;;;6.63;1.48;;;;;;;5.50;100.00;100213.16;4955823;29;20054;-74
2023/01/08 07:13:29;;;;;;;4.78;1.40;;;;;;;5.53;100.00;100204.50;4955782;29;20067;-74
2023/01/08 07:15:55;;;;;;;6.35;1.48;;;;;;;5.49;100.00;100193.56;4955804;29;20102;-80
2023/01/08 07:18:20;;;;;;;11.70;1.90;;;;;;;5.58;100.00;100205.09;4938224;29;20095;-75
2023/01/08 07:20:47;;;;;;;7.75;1.63;;;;;;;5.60;100.00;100201.53;4955723;29;20031;-76
2023/01/08 07:23:12;;;;;;;7.05;2.40;;;;;;;5.57;100.00;100196.56;4955910;29;20391;-75
2023/01/08 07:25:38;;;;;;;6.60;1.80;;;;;;;5.65;100.00;100197.00;4955565;29;20027;-74
2023/01/08 07:28:03;;;;;;;11.10;1.98;;;;;;;5.57;100.00;100177.81;4955583;29;20027;-75
2023/01/08 07:30:29;;;;;;;8.57;1.75;;;;;;;5.54;100.00;100170.31;4955489;29;20546;-76
2023/01/08 07:32:59;;;;;;;6.05;1.77;;;;;;;5.70;100.00;100201.88;4955471;29;20133;-76
2023/01/08 07:35:24;;;;;;;12.57;2.72;;;;;;;5.72;100.00;100202.63;4955515;29;20488;-78
2023/01/08 07:37:49;;;;;;;8.68;2.10;;;;;;;5.72;100.00;100205.19;4953915;29;20062;-77
2023/01/08 07:40:15;;;;;;;9.05;1.83;;;;;;;5.66;100.00;100202.94;4955593;29;20491;-78
2023/01/08 07:42:40;;;;;;;10.30;2.05;;;;;;;5.68;100.00;100207.06;4937382;29;20468;-77
2023/01/08 07:45:07;;;;;;;9.20;2.13;;;;;;;5.46;100.00;100178.38;4955248;29;20364;-76
2023/01/08 07:47:32;;;;;;;6.95;1.80;;;;;;;5.49;100.00;100191.03;4955330;29;20365;-78
2023/01/08 07:49:58;;;;;;;7.85;1.95;;;;;;;5.50;100.00;100205.47;4955308;29;20027;-76
2023/01/08 07:52:23;;;;;;;9.88;2.42;;;;;;;5.43;100.00;100191.34;4955185;29;20114;-76
2023/01/08 07:54:48;;;;;;;10.75;1.90;;;;;;;5.42;100.00;100203.34;4955218;29;20066;-77
2023/01/08 07:57:14;;;;;;;8.60;1.98;;;;;;;5.26;100.00;100174.28;4937516;29;20043;-78
2023/01/08 07:59:39;;;;;;;10.25;1.85;;;;;;;5.21;100.00;100189.06;4954935;29;20038;-77
2023/01/08 08:02:04;;;;;;;11.45;1.98;;;;;;;5.22;100.00;100187.34;4954890;29;20027;-76
2023/01/08 08:04:30;;;;;;;10.05;1.73;;;;;;;5.28;100.00;100192.94;4954889;29;20110;-78
2023/01/08 08:06:55;;;;;;;11.57;1.85;;;;;;;5.35;100.00;100190.91;4954852;29;20023;-78
2023/01/08 08:09:21;;;;;;;9.68;1.70;;;;;;;5.41;100.00;100206.81;4938034;29;20055;-77
2023/01/08 08:11:46;;;;;;;7.03;1.90;;;;;;;5.44;100.00;100198.13;4954732;29;20035;-77
2023/01/08 08:14:11;;;;;;;12.23;2.13;;;;;;;5.47;100.00;100196.22;4954867;29;20475;-77
2023/01/08 08:16:37;;;;;;;10.40;1.98;;;;;;;5.54;100.00;100188.22;4954813;29;20443;-78
2023/01/08 08:19:03;;;;;;;9.50;1.90;;;;;;;5.56;100.00;100173.59;4954873;29;20372;-78
2023/01/08 08:21:29;;;;;;;8.68;1.90;;;;;;;5.65;100.00;100179.06;4954872;29;20108;-79
2023/01/08 08:23:55;;;;;;;10.05;1.55;;;;;;;5.70;100.00;100171.97;4955137;29;20028;-75
2023/01/08 08:26:20;;;;;;;7.70;1.52;;;;;;;5.74;100.00;100170.91;4953781;29;20542;-77
2023/01/08 08:28:46;;;;;;;6.90;1.95;;;;;;;5.66;100.00;100144.03;4955389;29;20471;-77
2023/01/08 08:31:11;;;;;;;9.23;1.67;;;;;;;5.85;100.00;100164.38;4954974;29;20058;-76
2023/01/08 08:33:36;;;;;;;14.00;2.15;;;;;;;5.94;100.00;100162.16;4954394;29;20495;-73
2023/01/08 08:36:02;;;;;;;10.10;1.75;;;;;;;6.03;100.00;100159.09;4954655;29;20049;-76
2023/01/08 08:38:27;;;;;;;10.40;1.80;;;;;;;6.01;100.00;100139.59;4954742;29;20082;-77
2023/01/08 08:40:53;;;;;;;8.07;1.92;;;;;;;6.24;100.00;100171.66;4954552;29;20035;-77
2023/01/08 08:43:18;;;;;;;10.25;2.47;;;;;;;6.34;100.00;100162.53;4954548;29;20069;-78
2023/01/08 08:45:44;;;;;;;11.80;2.42;;;;;;;6.36;100.00;100149.63;4954348;29;20102;-77
2023/01/08 08:48:10;;;;;;;9.60;1.67;;;;;;;6.46;100.00;100153.31;4954486;29;20031;-78
2023/01/08 08:50:36;;;;;;;11.50;2.60;;;;;;;6.57;100.00;100144.09;4954461;29;20031;-78
2023/01/08 08:53:03;;;;;;;9.38;1.70;;;;;;;6.71;100.00;100145.06;4954172;29;20047;-74
2023/01/08 08:55:29;;;;;;;10.60;1.60;;;;;;;6.90;99.86;100150.78;4957765;28;20085;-76
2023/01/08 08:58:01;;;;;;;11.13;2.88;;;;;;;6.90;99.21;100148.22;4940887;29;20487;-79
2023/01/08 09:00:27;;;;;;;9.63;1.63;;;;;;;6.82;99.31;100150.38;4941458;29;20035;-76
2023/01/08 09:02:52;;;;;;;7.50;1.90;;;;;;;6.72;99.93;100147.53;4958150;29;20032;-78
2023/01/08 09:05:17;;;;;;;8.95;2.60;;;;;;;6.56;100.00;100142.44;4958245;29;20023;-77
2023/01/08 09:07:43;;;;;;;10.40;1.95;;;;;;;6.15;100.00;100101.19;4958008;29;20384;-77
2023/01/08 09:10:08;;;;;;;10.50;1.95;;;;;;;6.33;100.00;100138.63;4958233;29;20039;-78
2023/01/08 09:12:33;;;;;;;8.77;1.80;;;;;;;6.32;100.00;100154.09;4958322;29;20033;-75
2023/01/08 09:14:59;;;;;;;9.52;2.05;;;;;;;6.25;100.00;100157.91;4958018;29;20027;-76
2023/01/08 09:17:24;;;;;;;9.25;2.30;;;;;;;6.14;100.00;100153.38;4957732;29;20034;-78
2023/01/08 09:19:50;;;;;;;8.65;1.80;;;;;;;6.04;100.00;100155.63;4957842;29;20035;-75
2023/01/08 09:22:15;;;;;;;8.25;1.70;;;;;;;5.96;100.00;100159.53;4957755;29;20101;-74
2023/01/08 09:24:40;;;;;;;10.70;2.20;;;;;;;5.88;100.00;100159.06;4957719;29;20081;-75
2023/01/08 09:27:06;;;;;;;8.13;2.20;;;;;;;5.61;100.00;100118.69;4957991;29;20364;-79
2023/01/08 09:29:31;;;;;;;7.95;2.58;;;;;;;5.78;100.00;100152.78;4957951;29;20391;-79
2023/01/08 09:31:59;;;;;;;8.73;2.03;;;;;;;5.72;100.00;100151.41;4957502;29;20500;-78
2023/01/08 09:34:24;;;;;;;15.57;4.22;;;;;;;5.67;100.00;100150.81;4957537;29;20035;-79
2023/01/08 09:36:51;;;;;;;7.15;1.85;;;;;;;5.70;100.00;100155.75;4940466;29;20039;-78
2023/01/08 09:39:16;;;;;;;7.93;1.83;;;;;;;5.43;100.00;100117.94;4957565;29;20146;-78
2023/01/08 09:41:45;;;;;;;10.13;1.95;;;;;;;5.59;100.00;100146.09;4939785;29;20134;-80
2023/01/08 09:44:18;;;;;;;8.48;2.00;;;;;;;5.60;100.00;100145.19;4957716;29;20035;-81
2023/01/08 09:46:45;;;;;;;7.40;2.13;;;;;;;5.59;100.00;100143.53;4957555;29;20488;-75
2023/01/08 09:49:15;;;;;;;11.48;1.90;;;;;;;5.41;100.00;100118.91;4957314;29;20162;-76
2023/01/08 09:51:41;;;;;;;10.23;2.47;;;;;;;5.58;100.00;100141.06;4957392;29;20058;-77
2023/01/08 09:54:14;;;;;;;13.45;2.53;;;;;;;5.39;100.00;100108.72;4957228;29;20035;-79
2023/01/08 09:56:39;;;;;;;10.25;2.10;;;;;;;5.57;100.00;100139.41;4957576;29;20016;-80
2023/01/08 09:59:06;;;;;;;7.35;2.10;;;;;;;5.58;100.00;100141.88;4957507;29;20031;-77
2023/01/08 10:01:36;;;;;;;9.90;2.60;;;;;;;5.61;100.00;100146.03;4957014;29;20486;-79
2023/01/08 10:04:15;;;;;;;10.60;2.22;;;;;;;5.62;100.00;100130.56;4957105;29;20459;-78
2023/01/08 10:06:48;;;;;;;11.88;3.25;;;;;;;5.45;100.00;100099.91;4955999;28;20440;-80
2023/01/08 10:09:14;;;;;;;10.57;2.33;;;;;;;5.64;100.00;100133.06;4957134;29;20372;-76
2023/01/08 10:11:42;;;;;;;10.65;2.33;;;;;;;5.63;100.00;100124.53;4957117;29;20086;-81
2023/01/08 10:14:23;;;;;;;7.63;2.00;;;;;;;5.40;100.00;100084.78;4956906;29;20031;-79
2023/01/08 10:16:54;;;;;;;8.30;2.80;;;;;;;5.44;100.00;100082.91;4956928;29;20430;-79
2023/01/08 10:19:21;;;;;;;11.73;2.58;;;;;;;5.44;100.00;100067.53;4956746;29;20077;-80
2023/01/08 10:21:46;;;;;;;13.85;2.60;;;;;;;5.60;100.00;100090.56;4957028;29;20031;-78
2023/01/08 10:24:12;;;;;;;9.88;2.00;;;;;;;5.55;100.00;100064.41;4957131;29;20032;-78
2023/01/08 10:26:38;;;;;;;10.10;1.67;;;;;;;5.80;100.00;100095.47;4956819;29;20040;-79
2023/01/08 10:29:18;;;;;;;12.18;3.13;;;;;;;5.81;100.00;100091.16;4956773;29;20058;-78
2023/01/08 10:31:53;;;;;;;9.43;2.33;;;;;;;5.90;100.00;100096.63;4956309;29;20511;-76
2023/01/08 10:34:38;;;;;;;10.68;1.92;;;;;;;5.80;100.00;100059.59;4956458;29;20042;-79
2023/01/08 10:37:15;;;;;;;7.20;1.77;;;;;;;6.05;100.00;100082.13;4956583;29;20027;-81
2023/01/08 10:39:46;;;;;;;9.38;1.95;;;;;;;6.09;100.00;100085.34;4956682;29;20113;-76
2023/01/08 10:42:14;;;;;;;10.10;2.40;;;;;;;6.06;100.00;100065.00;4956446;29;20027;-80
2023/01/08 10:44:51;;;;;;;7.72;1.80;;;;;;;6.07;100.00;100057.22;4956475;29;20042;-74
2023/01/08 10:47:17;;;;;;;9.70;1.98;;;;;;;6.28;100.00;100071.38;4956465;29;20490;-79
2023/01/08 10:49:44;;;;;;;8.77;2.10;;;;;;;6.31;100.00;100076.34;4956227;29;20062;-78
2023/01/08 10:52:50;;;;;;;5.38;1.90;;;;;;;6.34;100.00;100065.09;4956285;29;20027;-78
2023/01/08 10:55:28;;;;;;;7.50;1.98;;;;;;;6.41;100.00;100061.28;4859951;29;20038;-78
2023/01/08 10:58:00;;;;;;;5.70;1.50;;;;;;;6.46;100.00;100064.38;4859821;29;20109;-79
2023/01/08 11:00:31;;;;;;;5.03;1.40;;;;;;;6.48;100.00;100054.03;4859914;29;20480;-80
2023/01/08 11:03:30;;;;;;;6.97;1.50;;;;;;;6.56;100.00;100055.22;4859729;29;20033;-78
2023/01/08 11:05:56;;;;;;;5.43;1.55;;;;;;;6.60;100.00;100043.91;4859619;29;20501;-78
2023/01/08 11:08:23;;;;;;;7.20;2.25;;;;;;;6.59;100.00;100018.34;4859689;29;20037;-78
2023/01/08 11:10:54;;;;;;;5.20;1.33;;;;;;;6.79;100.00;100035.09;4859790;29;20402;-77
2023/01/08 11:13:20;;;;;;;4.25;1.30;;;;;;;6.78;100.00;100013.72;4859615;29;20044;-81
2023/01/08 11:15:56;;;;;;;5.97;1.42;;;;;;;6.84;100.00;100020.25;4844041;29;20038;-77
2023/01/08 11:18:24;;;;;;;4.18;1.52;;;;;;;6.98;100.00;100021.97;4852514;29;20415;-74
2023/01/08 11:20:51;;;;;;;3.53;1.13;;;;;;;7.09;100.00;100038.38;4841699;29;20498;-77
2023/01/08 11:23:20;;;;;;;2.78;0.90;;;;;;;7.08;100.00;100020.47;4841205;29;20041;-77
2023/01/08 11:26:19;;;;;;;4.03;0.93;;;;;;;7.19;100.00;100020.66;4840757;29;20036;-77
2023/01/08 11:29:01;;;;;;;2.10;0.95;;;;;;;7.14;100.00;99999.56;4841029;29;20379;-78